createdAt,value
2022-09-23T00:00:15.268Z,10.70
2022-09-23T00:02:55.444Z,15.52
2022-09-23T00:05:42.237Z,10.45
2022-09-23T00:08:22.352Z,14.38
2022-09-23T00:11:14.204Z,18.40
2022-09-23T00:14:03.198Z,10.65
2022-09-23T00:16:50.322Z,6.97
2022-09-23T00:19:37.184Z,10.35
2022-09-23T00:22:17.567Z,8.32
2022-09-23T00:25:04.285Z,8.57
2022-09-23T00:27:58.173Z,8.77
2022-09-23T00:30:48.337Z,10.82
2022-09-23T00:33:29.901Z,13.77
2022-09-23T00:36:18.188Z,13.02
2022-09-23T00:39:05.273Z,15.30
2022-09-23T00:41:45.613Z,15.80
2022-09-23T00:44:55.211Z,12.52
2022-09-23T00:47:50.164Z,15.23
2022-09-23T00:53:22.627Z,15.00
2022-09-23T00:56:17.183Z,14.77
2022-09-23T01:02:01.232Z,11.95
2022-09-23T01:04:42.265Z,10.45
2022-09-23T01:07:29.200Z,12.93
2022-09-23T01:10:16.166Z,12.18
2022-09-23T01:13:09.306Z,9.77
2022-09-23T01:15:56.157Z,12.40
2022-09-23T01:19:17.129Z,8.13
2022-09-23T01:22:27.138Z,8.43
2022-09-23T01:25:51.153Z,6.72
2022-09-23T01:28:38.236Z,7.35
2022-09-23T01:31:45.150Z,7.22
2022-09-23T01:34:36.717Z,9.38
2022-09-23T01:37:37.085Z,10.05
2022-09-23T01:40:49.174Z,6.57
2022-09-23T01:43:47.948Z,7.65
2022-09-23T01:46:44.090Z,6.85
2022-09-23T01:49:43.161Z,7.97
2022-09-23T01:53:03.084Z,7.03
2022-09-23T01:55:50.117Z,7.55
2022-09-23T01:58:44.106Z,9.82
2022-09-23T02:01:35.246Z,5.63
2022-09-23T02:04:45.105Z,4.47
2022-09-23T02:08:12.113Z,4.78
2022-09-23T02:11:16.044Z,6.60
2022-09-23T02:14:22.124Z,5.05
2022-09-23T02:17:08.544Z,5.00
2022-09-23T02:20:04.069Z,5.63
2022-09-23T02:28:35.087Z,8.35
2022-09-23T02:31:37.084Z,6.72
2022-09-23T02:34:23.252Z,8.32
2022-09-23T02:37:13.067Z,10.25
2022-09-23T02:40:04.254Z,9.02
2022-09-23T02:43:24.065Z,6.72
2022-09-23T02:46:04.158Z,8.13
2022-09-23T02:49:07.055Z,7.28
2022-09-23T02:51:54.038Z,7.38
2022-09-23T02:54:35.439Z,8.27
2022-09-23T02:57:22.000Z,6.13
2022-09-23T03:00:02.506Z,6.07
2022-09-23T03:03:10.038Z,8.50
2022-09-23T03:06:01.975Z,8.23
2022-09-23T03:26:01.584Z,6.55
2022-09-23T03:28:51.581Z,4.68
2022-09-23T03:31:38.642Z,3.85
2022-09-23T03:34:31.581Z,4.10
2022-09-23T03:37:22.734Z,4.60
2022-09-23T03:40:30.641Z,7.43
2022-09-23T03:43:12.775Z,4.20
2022-09-23T03:46:04.608Z,9.00
2022-09-23T03:48:52.554Z,5.68
2022-09-23T03:51:32.927Z,5.13
2022-09-23T03:54:19.550Z,3.40
2022-09-23T03:57:07.547Z,4.30
2022-09-23T03:59:47.631Z,4.90
2022-09-23T04:02:34.612Z,5.93
2022-09-23T04:05:16.626Z,9.02
2022-09-23T04:08:03.541Z,6.15
2022-09-23T04:10:55.048Z,8.45
2022-09-23T04:13:41.510Z,8.18
2022-09-23T04:16:28.569Z,10.20
2022-09-23T04:19:13.052Z,7.10
2022-09-23T04:21:59.486Z,5.03
2022-09-23T04:24:53.498Z,8.02
2022-09-23T04:27:40.514Z,7.78
2022-09-23T04:30:20.694Z,9.32
2022-09-23T04:33:07.486Z,9.25
2022-09-23T04:35:48.593Z,13.30
2022-09-23T04:38:35.449Z,12.30
2022-09-23T04:41:16.622Z,14.25
2022-09-23T04:44:04.497Z,13.68
2022-09-23T04:46:47.595Z,13.32
2022-09-23T04:49:34.440Z,11.75
2022-09-23T04:52:21.506Z,17.35
2022-09-23T04:55:11.175Z,11.77
2022-09-23T04:57:58.467Z,13.48
2022-09-23T05:00:38.953Z,11.55
2022-09-23T05:03:25.446Z,12.80
2022-09-23T05:06:06.236Z,12.40
2022-09-23T05:08:55.440Z,10.18
2022-09-23T05:11:42.410Z,8.30
2022-09-23T05:14:29.469Z,9.00
2022-09-23T05:17:16.436Z,7.68
2022-09-23T05:19:57.962Z,8.13
2022-09-23T05:22:44.456Z,7.88
2022-09-23T05:25:38.566Z,5.43
2022-09-23T05:28:20.153Z,4.87
2022-09-23T05:31:06.466Z,11.35
2022-09-23T05:33:59.451Z,4.63
2022-09-23T05:36:42.529Z,18.23
2022-09-23T05:39:29.416Z,4.13
2022-09-23T05:42:16.388Z,9.07
2022-09-23T05:44:56.803Z,7.13
2022-09-23T05:47:43.406Z,6.32
2022-09-23T05:50:30.368Z,5.30
2022-09-23T05:53:10.505Z,6.93
2022-09-23T05:55:58.384Z,7.53
2022-09-23T05:58:38.521Z,9.02
2022-09-23T06:01:28.488Z,9.48
2022-09-23T06:04:17.377Z,10.77
2022-09-23T06:07:04.359Z,8.40
2022-09-23T06:09:44.499Z,10.07
2022-09-23T06:12:32.376Z,8.98
2022-09-23T06:15:20.360Z,8.80
2022-09-23T06:18:01.185Z,9.32
2022-09-23T06:20:48.388Z,8.60
2022-09-23T06:23:29.541Z,8.48
2022-09-23T06:26:18.375Z,7.47
2022-09-23T06:28:58.721Z,10.43
2022-09-23T06:31:47.498Z,11.07
2022-09-23T06:34:27.856Z,11.30
2022-09-23T06:37:19.912Z,11.05
2022-09-23T06:40:07.369Z,9.63
2022-09-23T06:42:55.357Z,10.43
2022-09-23T06:45:35.751Z,10.40
2022-09-23T06:48:22.351Z,10.00
2022-09-23T06:51:05.402Z,9.77
2022-09-23T06:53:52.297Z,10.48
2022-09-23T06:56:38.527Z,15.70
2022-09-23T06:59:26.350Z,9.02
2022-09-23T07:02:13.478Z,8.23
2022-09-23T07:04:53.458Z,14.05
2022-09-23T07:07:42.316Z,5.00
2022-09-23T07:10:22.423Z,7.47
2022-09-23T07:13:16.036Z,12.23
2022-09-23T07:16:02.915Z,6.50
2022-09-23T07:18:49.328Z,5.30
2022-09-23T07:21:36.255Z,5.30
2022-09-23T07:24:30.264Z,2.78
2022-09-23T07:27:10.666Z,3.67
2022-09-23T07:29:58.292Z,6.68
2022-09-23T07:32:49.001Z,6.82
2022-09-23T07:35:29.342Z,1.92
2022-09-23T07:38:18.278Z,2.10
2022-09-23T07:41:05.265Z,1.60
2022-09-23T07:43:46.401Z,1.35
2022-09-23T07:46:33.325Z,1.98
2022-09-23T07:49:13.987Z,2.28
2022-09-23T07:52:00.273Z,3.05
2022-09-23T07:54:47.281Z,3.97
2022-09-23T07:57:34.238Z,2.65
2022-09-23T08:00:21.244Z,6.20
2022-09-23T08:03:01.436Z,1.75
2022-09-23T08:05:48.251Z,2.67
2022-09-23T08:08:29.021Z,6.07
2022-09-23T08:11:19.212Z,2.50
2022-09-23T08:14:00.317Z,3.00
2022-09-23T08:16:48.336Z,2.03
2022-09-23T08:19:28.313Z,3.42
2022-09-23T08:22:15.266Z,1.90
2022-09-23T08:25:02.217Z,1.30
2022-09-23T08:27:49.243Z,1.23
2022-09-23T08:30:32.321Z,2.05
2022-09-23T08:33:23.552Z,3.37
2022-09-23T08:36:17.298Z,3.33
2022-09-23T08:41:59.118Z,2.75
2022-09-23T08:45:12.218Z,1.95
2022-09-23T08:48:12.162Z,1.52
2022-09-23T08:51:06.212Z,2.50
2022-09-23T08:56:44.303Z,1.35
2022-09-23T08:59:43.226Z,1.70
2022-09-23T09:02:25.028Z,1.38
2022-09-23T09:05:17.246Z,2.28
2022-09-23T09:08:00.525Z,2.42
2022-09-23T09:10:54.182Z,1.23
2022-09-23T09:13:43.439Z,3.17
2022-09-23T09:16:59.659Z,1.50
2022-09-23T09:19:54.280Z,1.15
2022-09-23T09:23:02.201Z,1.95
2022-09-23T09:26:06.199Z,5.20
2022-09-23T09:29:11.482Z,1.60
2022-09-23T09:32:06.119Z,2.60
2022-09-23T09:34:54.722Z,2.83
2022-09-23T09:37:53.568Z,2.85
2022-09-23T09:40:35.287Z,2.08
2022-09-23T09:43:23.135Z,1.50
2022-09-23T09:46:43.213Z,6.03
2022-09-23T09:49:43.132Z,2.00
2022-09-23T09:52:33.156Z,1.92
2022-09-23T09:55:26.091Z,2.90
2022-09-23T09:58:13.098Z,2.45
2022-09-23T10:01:00.185Z,2.50
2022-09-23T10:03:50.826Z,3.05
2022-09-23T10:06:35.776Z,2.58
2022-09-23T10:09:26.066Z,2.42
2022-09-23T10:12:31.054Z,3.20
2022-09-23T10:18:40.085Z,3.42
2022-09-23T10:21:27.741Z,2.97
2022-09-23T10:24:18.099Z,1.90
2022-09-23T10:27:12.093Z,2.08
2022-09-23T10:30:04.009Z,4.03
2022-09-23T10:32:52.033Z,1.73
2022-09-23T10:35:42.071Z,2.25
2022-09-23T10:38:22.485Z,1.80
2022-09-23T10:41:28.040Z,2.08
2022-09-23T10:44:37.795Z,3.58
2022-09-23T10:47:48.030Z,2.15
2022-09-23T10:50:55.113Z,1.95
2022-09-23T10:53:49.052Z,2.33
2022-09-23T10:56:36.184Z,3.30
2022-09-23T11:00:05.053Z,2.53
2022-09-23T11:03:09.026Z,2.08
2022-09-23T11:06:05.024Z,3.83
2022-09-23T11:09:03.107Z,2.58
2022-09-23T11:12:28.052Z,2.00
2022-09-23T11:15:39.031Z,1.85
2022-09-23T11:18:37.176Z,2.25
2022-09-23T11:21:30.016Z,4.07
2022-09-23T11:24:59.048Z,2.45
2022-09-23T11:27:45.535Z,3.55
2022-09-23T11:30:33.074Z,3.65
2022-09-23T11:33:30.978Z,2.08
2022-09-23T11:36:53.008Z,2.53
2022-09-23T11:39:42.646Z,3.85
2022-09-23T11:42:38.989Z,1.60
2022-09-23T11:45:25.566Z,2.65
2022-09-23T11:48:17.957Z,3.20
2022-09-23T11:51:20.581Z,2.55
2022-09-23T11:54:20.729Z,4.13
2022-09-23T11:57:12.980Z,1.88
2022-09-23T11:59:59.121Z,2.85
2022-09-23T12:03:02.970Z,2.97
2022-09-23T12:06:15.166Z,3.05
2022-09-23T12:09:07.976Z,2.60
2022-09-23T12:11:57.098Z,1.90
2022-09-23T12:15:21.165Z,2.78
2022-09-23T12:18:23.157Z,6.20
2022-09-23T12:21:22.148Z,0.03
2022-09-23T12:24:47.062Z,1.65
2022-09-23T12:27:36.922Z,0.30
2022-09-23T12:30:37.045Z,0.68
2022-09-23T12:33:30.954Z,0.88
2022-09-23T12:36:19.044Z,0.47
2022-09-23T12:39:13.971Z,1.65
2022-09-23T12:44:46.949Z,0.20
2022-09-23T12:47:34.963Z,1.05
2022-09-23T12:50:47.270Z,0.45
2022-09-23T12:53:45.957Z,0.45
2022-09-23T12:56:57.993Z,0.45
2022-09-23T12:59:59.206Z,0.32
2022-09-23T13:03:26.952Z,0.55
2022-09-23T13:06:32.894Z,0.55
2022-09-23T13:09:25.899Z,0.08
2022-09-23T13:12:10.506Z,0.60
2022-09-23T13:15:00.944Z,0.90
2022-09-23T13:17:45.074Z,0.20
2022-09-23T13:20:44.910Z,1.95
2022-09-23T13:23:44.889Z,0.10
2022-09-23T13:26:31.906Z,0.05
2022-09-23T13:29:19.885Z,0.28
2022-09-23T13:32:08.931Z,0.65
2022-09-23T13:34:50.007Z,0.45
2022-09-23T13:37:56.878Z,0.00
2022-09-23T13:40:37.021Z,0.17
2022-09-23T13:43:38.946Z,0.65
2022-09-23T13:46:32.120Z,0.10
2022-09-23T13:49:30.862Z,0.20
2022-09-23T13:52:10.964Z,0.30
2022-09-23T13:54:57.859Z,0.30
2022-09-23T13:57:47.850Z,1.35
2022-09-23T14:00:41.867Z,0.40
2022-09-23T14:03:37.134Z,0.00
2022-09-23T14:06:23.851Z,0.00
2022-09-23T14:09:06.974Z,0.77
2022-09-23T14:11:53.801Z,0.20
2022-09-23T14:14:42.981Z,0.30
2022-09-23T14:17:29.825Z,0.68
2022-09-23T14:20:16.870Z,0.00
2022-09-23T14:23:10.733Z,0.52
2022-09-23T14:25:58.804Z,0.00
2022-09-23T14:28:45.808Z,0.20
2022-09-23T14:31:32.889Z,0.08
2022-09-23T14:34:47.883Z,0.25
2022-09-23T14:37:49.475Z,0.20
2022-09-23T14:40:45.850Z,0.10
2022-09-23T14:43:33.362Z,0.08
2022-09-23T14:46:26.813Z,0.00
2022-09-23T14:49:18.892Z,0.53
2022-09-23T14:52:13.807Z,0.30
2022-09-23T14:54:56.896Z,0.40
2022-09-23T14:57:44.762Z,0.03
2022-09-23T15:00:27.061Z,0.00
2022-09-23T15:03:22.866Z,0.13
2022-09-23T15:06:08.865Z,0.30
2022-09-23T15:08:57.803Z,0.40
2022-09-23T15:27:55.208Z,0.25
2022-09-23T15:30:36.906Z,0.50
2022-09-23T15:33:33.195Z,4.47
2022-09-23T15:36:23.131Z,0.40
2022-09-23T15:39:18.161Z,0.22
2022-09-23T15:42:06.185Z,0.47
2022-09-23T15:44:46.316Z,0.60
2022-09-23T15:47:33.138Z,1.20
2022-09-23T15:50:13.268Z,0.50
2022-09-23T15:53:00.140Z,0.20
2022-09-23T15:55:47.172Z,0.50
2022-09-23T15:58:34.279Z,3.28
2022-09-23T16:01:38.222Z,9.25
2022-09-23T16:04:18.601Z,7.38
2022-09-23T16:07:06.100Z,17.77
2022-09-23T16:09:46.671Z,23.15
2022-09-23T16:12:33.190Z,25.58
2022-09-23T16:15:17.046Z,18.48
2022-09-23T16:18:04.140Z,20.92
2022-09-23T16:20:46.425Z,24.58
2022-09-23T16:23:41.147Z,21.15
2022-09-23T16:29:19.137Z,13.65
2022-09-23T16:32:01.094Z,12.23
2022-09-23T16:34:48.115Z,11.23
2022-09-23T16:37:28.531Z,16.27
2022-09-23T16:40:16.168Z,16.60
2022-09-23T16:42:58.427Z,10.50
2022-09-23T16:45:45.215Z,22.58
2022-09-23T16:48:25.734Z,17.23
2022-09-23T16:51:17.120Z,18.23
2022-09-23T16:53:59.447Z,17.75
2022-09-23T16:56:46.073Z,15.13
2022-09-23T16:59:53.113Z,22.52
2022-09-23T17:02:52.030Z,22.90
2022-09-23T17:05:39.044Z,25.30
2022-09-23T17:08:27.080Z,13.55
2022-09-23T17:11:08.915Z,16.67
2022-09-23T17:13:57.084Z,14.80
2022-09-23T17:16:44.160Z,14.48
2022-09-23T17:19:24.187Z,19.80
2022-09-23T17:22:11.074Z,24.55
2022-09-23T17:24:51.155Z,20.38
2022-09-23T17:27:39.090Z,24.33
2022-09-23T17:30:26.027Z,28.05
2022-09-23T17:33:06.495Z,24.85
2022-09-23T17:35:53.775Z,22.48
2022-09-23T17:38:40.213Z,20.15
2022-09-23T17:41:21.065Z,17.90
2022-09-23T17:44:01.736Z,21.05
2022-09-23T17:46:48.071Z,19.13
2022-09-23T17:49:29.964Z,21.05
2022-09-23T17:52:17.972Z,18.55
2022-09-23T17:55:06.014Z,15.75
2022-09-23T17:57:53.021Z,19.33
2022-09-23T18:00:40.164Z,17.42
2022-09-23T18:03:21.001Z,16.83
2022-09-23T18:06:08.384Z,15.68
2022-09-23T18:08:55.999Z,28.20
2022-09-23T18:11:39.158Z,19.67
2022-09-23T18:14:35.065Z,15.57
2022-09-23T18:17:22.973Z,14.48
2022-09-23T18:20:03.473Z,12.10
2022-09-23T18:22:50.114Z,7.47
2022-09-23T18:25:39.223Z,10.32
2022-09-23T18:28:25.977Z,17.38
2022-09-23T18:31:12.983Z,10.48
2022-09-23T18:34:02.005Z,9.95
2022-09-23T18:36:42.081Z,10.82
2022-09-23T18:39:28.994Z,12.32
2022-09-23T18:42:15.975Z,21.27
2022-09-23T18:44:57.205Z,13.98
2022-09-23T18:48:01.968Z,16.90
2022-09-23T18:50:43.999Z,17.65
2022-09-23T18:53:30.954Z,16.38
2022-09-23T18:56:13.421Z,15.73
2022-09-23T18:59:01.916Z,11.63
2022-09-23T19:01:50.128Z,14.55
2022-09-23T19:04:38.925Z,18.58
2022-09-23T19:07:25.917Z,17.98
2022-09-23T19:10:06.048Z,14.60
2022-09-23T19:12:52.936Z,18.85
2022-09-23T19:15:33.033Z,13.80
2022-09-23T19:18:19.889Z,15.60
2022-09-23T19:21:06.225Z,16.90
2022-09-23T19:24:02.914Z,22.60
2022-09-23T19:26:51.072Z,17.30
2022-09-23T19:29:31.911Z,20.35
2022-09-23T19:32:20.911Z,21.80
2022-09-23T19:35:01.133Z,25.58
2022-09-23T19:37:48.907Z,19.75
2022-09-23T19:40:31.860Z,25.63
2022-09-23T19:43:18.887Z,17.15
2022-09-23T19:46:02.969Z,16.33
2022-09-23T19:48:49.856Z,19.95
2022-09-23T19:51:36.874Z,15.82
2022-09-23T19:54:26.917Z,19.05
2022-09-23T19:57:06.978Z,21.33
2022-09-23T19:59:53.852Z,19.08
2022-09-23T20:02:34.069Z,25.67
2022-09-23T20:05:20.894Z,19.90
2022-09-23T20:08:02.066Z,18.95
2022-09-23T20:10:48.890Z,22.20
2022-09-23T20:13:35.862Z,18.50
2022-09-23T20:16:25.906Z,21.88
2022-09-23T20:19:07.046Z,17.95
2022-09-23T20:22:13.845Z,19.15
2022-09-23T20:24:53.932Z,16.98
2022-09-23T20:27:41.834Z,14.73
2022-09-23T20:30:21.965Z,22.27
2022-09-23T20:33:08.814Z,20.55
2022-09-23T20:35:48.893Z,23.95
2022-09-23T20:38:35.805Z,24.27
2022-09-23T20:41:22.760Z,29.85
2022-09-23T20:44:13.024Z,26.95
2022-09-23T20:47:00.848Z,28.70
2022-09-23T20:49:45.087Z,26.73
2022-09-23T20:52:31.829Z,28.42
2022-09-23T20:55:12.174Z,28.90
2022-09-23T20:58:01.806Z,23.58
2022-09-23T21:00:44.491Z,23.77
2022-09-23T21:03:32.806Z,27.35
2022-09-23T21:06:15.422Z,21.02
2022-09-23T21:09:01.779Z,20.77
2022-09-23T21:11:48.771Z,19.35
2022-09-23T21:14:28.897Z,20.13
2022-09-23T21:17:15.770Z,19.90
2022-09-23T21:20:02.766Z,17.88
2022-09-23T21:22:43.205Z,24.65
2022-09-23T21:25:30.715Z,24.80
2022-09-23T21:28:18.514Z,28.00
2022-09-23T21:31:00.106Z,34.53
2022-09-23T21:33:46.871Z,32.40
2022-09-23T21:36:27.710Z,28.52
2022-09-23T21:39:10.448Z,27.67
2022-09-23T21:41:57.738Z,23.98
2022-09-23T21:44:38.055Z,28.55
2022-09-23T21:47:24.724Z,23.90
2022-09-23T21:50:05.704Z,25.65
2022-09-23T21:52:52.669Z,24.00
2022-09-23T21:55:39.891Z,26.95
2022-09-23T21:58:20.719Z,22.83
2022-09-23T22:01:08.795Z,28.35
2022-09-23T22:03:49.892Z,21.67
2022-09-23T22:06:36.717Z,23.90
2022-09-23T22:09:25.767Z,18.42
2022-09-23T22:12:14.669Z,21.10
2022-09-23T22:14:54.801Z,17.13
2022-09-23T22:17:41.670Z,23.08
2022-09-23T22:20:28.671Z,21.50
2022-09-23T22:23:15.722Z,21.27
2022-09-23T22:25:59.430Z,22.38
2022-09-23T22:29:06.668Z,44.65
2022-09-23T22:32:11.689Z,37.15
2022-09-23T22:34:52.823Z,46.30
2022-09-23T22:37:45.673Z,42.17
2022-09-23T22:40:32.694Z,38.97
2022-09-23T22:43:19.645Z,35.05
2022-09-23T22:46:07.701Z,26.35
2022-09-23T22:48:54.633Z,25.67
2022-09-23T22:51:41.658Z,29.80
2022-09-23T22:54:22.248Z,25.90
2022-09-23T22:57:11.635Z,19.30
2022-09-23T22:59:59.634Z,22.92
2022-09-23T23:02:40.343Z,25.90
2022-09-23T23:05:26.615Z,30.33
2022-09-23T23:08:13.612Z,30.98
2022-09-23T23:10:55.026Z,37.47
2022-09-23T23:13:41.620Z,38.97
2022-09-23T23:16:25.309Z,35.67
2022-09-23T23:19:16.602Z,43.58
2022-09-23T23:22:04.602Z,48.67
2022-09-23T23:24:51.634Z,51.60
2022-09-23T23:27:38.616Z,85.63
2022-09-23T23:30:18.945Z,53.42
2022-09-23T23:33:05.590Z,55.08
2022-09-23T23:35:57.602Z,44.30
2022-09-23T23:38:38.040Z,40.22
2022-09-23T23:41:28.580Z,40.40
2022-09-23T23:44:08.778Z,41.03
2022-09-23T23:46:55.624Z,42.22
2022-09-23T23:49:35.651Z,55.30
2022-09-23T23:52:22.543Z,50.05
2022-09-23T23:55:02.968Z,47.15
2022-09-23T23:57:49.577Z,50.08
